Time;durP1;ratioP1;P1;durP2;ratioP2;P2;SDS_P1;SDS_P2;PMS_P1;PMS_P2;Temp;Humidity;BMP_temperature;BMP_pressure;BME280_temperature;BME280_humidity;BME280_pressure;Samples;Min_cycle;Max_cycle;Signal;HPM_P1;HPM_P2
2021/12/14 00:00:25;;;;;;;19.03;11.57;;;;;;;9.79;84.83;101804.69;5029979;28;20268;-66
2021/12/14 00:02:55;;;;;;;19.33;12.10;;;;;;;9.80;84.67;101803.75;5030411;28;20217;-66
2021/12/14 00:05:26;;;;;;;20.43;12.13;;;;;;;9.71;84.99;101801.75;5026130;28;20237;-66
2021/12/14 00:07:56;;;;;;;23.53;13.93;;;;;;;9.76;84.37;101797.00;5027290;28;20219;-65
2021/12/14 00:10:46;;;;;;;18.53;11.57;;;;;;;9.66;84.80;101793.31;5035175;28;20227;-66
2021/12/14 00:13:23;;;;;;;19.73;12.03;;;;;;;9.29;87.55;101782.69;5025809;28;20210;-66
2021/12/14 00:15:52;;;;;;;20.63;12.63;;;;;;;9.38;87.46;101782.03;5028475;28;20205;-66
2021/12/14 00:18:21;;;;;;;19.40;12.33;;;;;;;9.66;85.16;101791.50;5027395;28;20657;-66
2021/12/14 00:20:52;;;;;;;23.70;13.53;;;;;;;9.17;88.20;101788.81;5026250;28;20211;-66
2021/12/14 00:26:08;;;;;;;21.07;12.73;;;;;;;9.33;87.90;101793.88;5024219;28;20666;-65
2021/12/14 00:28:37;;;;;;;22.43;13.47;;;;;;;9.18;88.76;101793.16;5025457;28;20768;-66
2021/12/14 00:31:13;;;;;;;20.43;12.87;;;;;;;9.15;89.06;101790.72;5031103;28;20229;-66
2021/12/14 00:33:43;;;;;;;20.53;13.00;;;;;;;8.97;89.97;101792.03;5024788;28;20212;-67
2021/12/14 00:36:12;;;;;;;23.43;13.73;;;;;;;9.25;88.42;101790.91;5026719;28;20208;-65
2021/12/14 00:38:42;;;;;;;22.53;12.77;;;;;;;9.34;87.50;101791.13;5028597;28;20225;-66
2021/12/14 00:41:13;;;;;;;20.50;12.40;;;;;;;9.01;89.61;101782.91;5031513;28;20216;-65
2021/12/14 00:43:42;;;;;;;24.90;13.23;;;;;;;9.20;88.82;101782.47;5020907;28;20221;-66
2021/12/14 00:46:11;;;;;;;21.53;13.03;;;;;;;9.29;87.94;101782.69;5028577;28;20210;-66
2021/12/14 00:48:40;;;;;;;21.83;13.10;;;;;;;9.04;89.61;101788.00;5049496;28;20217;-67
2021/12/14 00:51:10;;;;;;;21.17;13.83;;;;;;;9.24;88.52;101786.59;5049351;28;20267;-66
2021/12/14 00:53:40;;;;;;;19.50;12.17;;;;;;;9.22;88.68;101776.13;5047601;28;20218;-66
2021/12/14 00:56:11;;;;;;;26.57;13.80;;;;;;;9.52;86.75;101777.53;5048507;28;20659;-66
2021/12/14 00:58:42;;;;;;;21.17;13.23;;;;;;;9.46;86.59;101780.63;5042715;28;20251;-66
2021/12/14 01:01:18;;;;;;;21.00;13.30;;;;;;;9.16;88.81;101781.81;5046073;28;20243;-66
2021/12/14 01:03:54;;;;;;;20.43;11.77;;;;;;;9.38;87.67;101776.72;5044920;28;20646;-66
2021/12/14 01:06:28;;;;;;;20.00;12.20;;;;;;;9.47;86.95;101792.91;5049108;28;20603;-66
2021/12/14 01:08:57;;;;;;;21.53;13.73;;;;;;;9.21;88.05;101782.38;5048315;28;20207;-66
2021/12/14 01:11:31;;;;;;;20.53;13.23;;;;;;;9.17;88.99;101780.88;5050588;28;20313;-66
2021/12/14 01:14:06;;;;;;;19.33;13.07;;;;;;;8.95;90.68;101775.41;5029053;28;20222;-66
2021/12/14 01:16:51;;;;;;;20.60;13.77;;;;;;;8.82;91.98;101774.53;5048849;28;20217;-66
2021/12/14 01:19:25;;;;;;;23.40;14.13;;;;;;;8.75;92.96;101782.06;5040141;28;20307;-66
2021/12/14 01:25:02;;;;;;;25.30;14.97;;;;;;;9.16;89.96;101792.41;5031819;28;20213;-65
2021/12/14 01:27:38;;;;;;;23.40;14.53;;;;;;;9.39;87.80;101786.38;5045335;28;20325;-65
2021/12/14 01:30:14;;;;;;;24.10;14.47;;;;;;;9.34;87.62;101785.84;5048977;28;20255;-66
2021/12/14 01:32:46;;;;;;;26.00;14.87;;;;;;;9.21;88.75;101794.75;5044840;28;20243;-66
2021/12/14 01:35:15;;;;;;;22.67;13.80;;;;;;;9.19;89.38;101797.50;5047107;28;20239;-66
2021/12/14 01:37:59;;;;;;;23.77;15.80;;;;;;;9.25;88.92;101790.91;5047876;28;20550;-66
2021/12/14 01:43:32;;;;;;;27.13;15.53;;;;;;;9.23;88.79;101792.84;5082075;27;20943;-66
2021/12/14 01:46:07;;;;;;;25.27;15.47;;;;;;;9.31;88.43;101794.00;5083146;28;20211;-65
2021/12/14 01:48:35;;;;;;;29.70;16.27;;;;;;;9.01;90.38;101793.50;5079721;28;20234;-65
2021/12/14 01:51:07;;;;;;;24.77;15.03;;;;;;;8.88;91.65;101793.47;5086483;28;20298;-65
2021/12/14 01:53:36;;;;;;;25.93;14.87;;;;;;;8.80;92.44;101800.22;5072932;28;20690;-65
2021/12/14 01:56:09;;;;;;;23.97;15.17;;;;;;;9.00;91.82;101800.56;5074363;28;20241;-65
2021/12/14 01:58:42;;;;;;;24.10;16.03;;;;;;;8.83;92.43;101807.97;5074463;28;20219;-65
2021/12/14 02:01:14;;;;;;;27.13;17.03;;;;;;;9.09;90.99;101801.75;5075011;28;20207;-65
2021/12/14 02:03:54;;;;;;;28.57;16.23;;;;;;;9.19;89.84;101802.81;5074411;28;20196;-65
2021/12/14 02:06:26;;;;;;;25.90;16.77;;;;;;;8.86;92.47;101805.13;5073475;28;20579;-65
2021/12/14 02:08:57;;;;;;;23.67;15.07;;;;;;;8.94;91.98;101803.66;5072920;28;20207;-66
2021/12/14 02:11:26;;;;;;;28.57;17.73;;;;;;;8.90;92.57;101806.59;5070636;28;20255;-66
2021/12/14 02:13:56;;;;;;;27.33;16.43;;;;;;;8.91;92.64;101805.66;5078883;28;20694;-66
2021/12/14 02:16:24;;;;;;;26.43;16.57;;;;;;;9.02;91.50;101813.72;5079484;28;20611;-66
2021/12/14 02:18:58;;;;;;;27.40;17.47;;;;;;;8.84;92.75;101809.66;5069917;28;20836;-66
2021/12/14 02:21:28;;;;;;;28.27;17.77;;;;;;;8.81;93.48;101808.06;5076828;28;20700;-66
2021/12/14 02:23:59;;;;;;;28.73;17.03;;;;;;;8.85;93.04;101806.06;5071540;28;20689;-66
2021/12/14 02:26:31;;;;;;;28.17;16.37;;;;;;;8.93;93.01;101801.09;5075384;28;20221;-66
2021/12/14 02:29:01;;;;;;;28.40;17.17;;;;;;;9.03;91.96;101807.47;5067369;28;20217;-66
2021/12/14 02:31:29;;;;;;;28.43;17.03;;;;;;;8.97;91.61;101803.41;5074270;28;20653;-65
2021/12/14 02:34:02;;;;;;;28.97;17.50;;;;;;;9.17;90.63;101811.78;5070971;28;20568;-65
2021/12/14 02:36:34;;;;;;;28.40;16.37;;;;;;;9.17;90.54;101809.16;5072883;28;20222;-65
2021/12/14 02:39:08;;;;;;;29.63;17.70;;;;;;;9.14;90.35;101804.09;5076600;28;20204;-65
2021/12/14 02:41:45;;;;;;;30.27;17.67;;;;;;;8.98;91.45;101809.56;5074773;28;20234;-66
2021/12/14 02:44:14;;;;;;;30.80;18.80;;;;;;;9.17;90.35;101810.00;5067205;28;20199;-65
2021/12/14 02:46:43;;;;;;;27.13;17.07;;;;;;;9.15;90.49;101817.19;5079256;28;20241;-65
2021/12/14 02:49:16;;;;;;;26.57;17.20;;;;;;;9.01;91.36;101815.50;5070177;28;20215;-65
2021/12/14 02:51:50;;;;;;;30.13;17.67;;;;;;;8.95;92.23;101810.66;5066321;28;20248;-65
2021/12/14 02:54:22;;;;;;;30.20;18.53;;;;;;;9.13;90.85;101800.59;5054309;28;20251;-65
2021/12/14 02:56:54;;;;;;;28.07;17.67;;;;;;;9.32;89.51;101802.81;5053614;28;20246;-65
2021/12/14 02:59:24;;;;;;;28.70;17.57;;;;;;;9.48;88.49;101798.13;5056738;28;20230;-66
2021/12/14 03:01:56;;;;;;;27.43;16.30;;;;;;;9.27;89.50;101797.81;5053835;28;20208;-66
2021/12/14 03:04:24;;;;;;;25.63;16.70;;;;;;;9.11;90.53;101783.13;5060963;28;20212;-65
2021/12/14 03:06:55;;;;;;;28.73;17.50;;;;;;;8.95;91.81;101783.34;5058701;28;20706;-65
2021/12/14 03:09:38;;;;;;;28.50;18.33;;;;;;;8.91;92.59;101781.84;5052563;28;20545;-65
2021/12/14 03:12:09;;;;;;;27.87;17.03;;;;;;;9.15;91.19;101769.53;5058108;28;20669;-65
2021/12/14 03:14:38;;;;;;;28.47;16.87;;;;;;;9.44;88.61;101767.50;5059448;28;20298;-66
2021/12/14 03:17:06;;;;;;;28.87;17.93;;;;;;;9.51;87.55;101762.59;5058792;28;20204;-66
2021/12/14 03:19:34;;;;;;;26.80;16.90;;;;;;;9.28;88.83;101762.44;5063277;28;20210;-66
2021/12/14 03:22:20;;;;;;;28.30;17.00;;;;;;;9.26;89.65;101766.16;5065919;28;20254;-66
2021/12/14 03:24:48;;;;;;;27.83;15.90;;;;;;;9.23;89.64;101772.53;5058213;28;20200;-66
2021/12/14 03:27:16;;;;;;;31.97;17.97;;;;;;;8.91;92.19;101764.16;5055739;28;20352;-66
2021/12/14 03:29:44;;;;;;;28.63;16.87;;;;;;;8.85;93.14;101758.47;5061562;28;20211;-66
2021/12/14 03:32:12;;;;;;;30.00;17.90;;;;;;;8.95;92.29;101763.03;5053116;28;20294;-65
2021/12/14 03:34:42;;;;;;;28.53;16.80;;;;;;;8.80;93.45;101768.50;5053729;28;20217;-66
2021/12/14 03:37:16;;;;;;;25.67;16.13;;;;;;;9.13;91.38;101771.47;5058432;28;20254;-66
2021/12/14 03:39:47;;;;;;;30.63;17.97;;;;;;;9.05;91.37;101773.81;5054968;28;20689;-66
2021/12/14 03:42:21;;;;;;;32.33;17.03;;;;;;;9.15;91.23;101779.31;5054256;28;20262;-65
2021/12/14 03:44:52;;;;;;;29.97;16.17;;;;;;;8.96;92.07;101779.75;5054394;28;20212;-65
2021/12/14 03:47:24;;;;;;;26.13;16.40;;;;;;;9.16;90.77;101780.97;5062729;28;20208;-65
2021/12/14 03:49:55;;;;;;;26.33;15.70;;;;;;;9.22;89.88;101781.41;5061005;28;20271;-66
2021/12/14 03:52:27;;;;;;;26.33;16.10;;;;;;;9.03;91.22;101771.28;5060918;28;20260;-66
2021/12/14 03:54:55;;;;;;;29.83;17.50;;;;;;;9.08;90.56;101768.28;5057828;28;20323;-65
2021/12/14 03:57:23;;;;;;;29.50;16.37;;;;;;;8.69;93.73;101756.03;5055026;28;20213;-66
2021/12/14 03:59:54;;;;;;;24.53;15.73;;;;;;;8.47;96.48;101751.34;5061684;28;20712;-65
2021/12/14 04:02:22;;;;;;;27.13;16.77;;;;;;;8.82;94.02;101745.44;5061310;28;20212;-65
2021/12/14 04:05:00;;;;;;;26.23;15.77;;;;;;;8.82;93.33;101745.44;5056420;28;20362;-65
2021/12/14 04:07:30;;;;;;;29.13;16.97;;;;;;;8.63;94.78;101751.13;5054692;28;20211;-65
2021/12/14 04:09:59;;;;;;;30.10;16.27;;;;;;;8.66;95.16;101751.78;5053202;28;20250;-65
2021/12/14 04:12:27;;;;;;;27.03;16.40;;;;;;;8.35;97.57;101751.34;5059503;28;20664;-65
2021/12/14 04:14:57;;;;;;;28.43;17.17;;;;;;;8.52;96.10;101765.13;5058288;28;20668;-66
2021/12/14 04:17:28;;;;;;;28.93;16.73;;;;;;;8.86;93.30;101766.31;5059827;28;20306;-66
2021/12/14 04:19:59;;;;;;;26.93;16.20;;;;;;;8.80;94.22;101763.22;5057346;28;20215;-65
2021/12/14 04:22:29;;;;;;;27.43;15.97;;;;;;;8.73;94.13;101752.22;5056761;28;20207;-65
2021/12/14 04:25:04;;;;;;;23.23;15.13;;;;;;;8.59;94.93;101750.53;5057649;28;20216;-65
2021/12/14 04:27:33;;;;;;;29.17;15.50;;;;;;;8.55;95.56;101751.66;5061699;28;20222;-66
2021/12/14 04:30:04;;;;;;;23.97;15.40;;;;;;;8.29;97.25;101734.88;5058520;28;20203;-66
2021/12/14 04:32:32;;;;;;;29.07;15.80;;;;;;;8.42;97.24;101745.53;5049541;28;20257;-65
2021/12/14 04:35:00;;;;;;;21.80;13.50;;;;;;;8.28;97.93;101746.41;5051899;28;20567;-65
2021/12/14 04:37:29;;;;;;;26.97;13.97;;;;;;;8.36;96.88;101750.34;5058084;28;20225;-65
2021/12/14 04:40:10;;;;;;;27.60;13.80;;;;;;;8.29;97.80;101744.59;5057288;28;20208;-65
2021/12/14 04:53:51;;;;;;;21.87;13.17;;;;;;;8.17;97.45;101714.59;5051935;28;20206;-66
2021/12/14 04:56:24;;;;;;;24.83;13.80;;;;;;;8.03;99.18;101700.56;5054272;28;20326;-65
2021/12/14 04:58:57;;;;;;;29.20;13.83;;;;;;;7.76;100.00;101695.31;5051030;28;20218;-65
2021/12/14 05:01:25;;;;;;;25.90;14.63;;;;;;;7.74;100.00;101698.06;5061388;28;20215;-65
2021/12/14 05:03:56;;;;;;;25.70;14.43;;;;;;;7.83;100.00;101692.16;5055808;28;20244;-65
2021/12/14 05:06:33;;;;;;;28.90;16.00;;;;;;;7.89;99.63;101681.22;5057181;28;20225;-65
2021/12/14 05:09:22;;;;;;;28.73;15.77;;;;;;;7.89;99.87;101686.50;5055091;28;20317;-65
2021/12/14 05:11:53;;;;;;;30.53;17.03;;;;;;;7.81;100.00;101683.53;5056827;28;20305;-65
2021/12/14 05:14:24;;;;;;;27.30;15.33;;;;;;;8.04;98.45;101681.13;5058979;28;20215;-65
2021/12/14 05:16:55;;;;;;;32.23;16.57;;;;;;;8.34;96.50;101683.56;5060751;28;20211;-65
2021/12/14 05:19:32;;;;;;;35.37;16.77;;;;;;;8.04;97.40;101671.44;5062952;28;20276;-65
2021/12/14 05:22:05;;;;;;;28.53;16.53;;;;;;;7.81;99.60;101667.69;5048883;28;20593;-65
2021/12/14 05:24:33;;;;;;;27.53;16.57;;;;;;;7.86;99.56;101656.81;5057657;28;20317;-65
2021/12/14 05:27:04;;;;;;;29.97;16.03;;;;;;;8.01;97.54;101662.84;5051323;28;20380;-65
2021/12/14 05:29:33;;;;;;;31.40;16.67;;;;;;;8.00;97.03;101654.09;5049805;28;20584;-65
2021/12/14 05:32:05;;;;;;;31.83;16.33;;;;;;;8.11;96.58;101653.34;5065075;28;20210;-65
2021/12/14 05:34:37;;;;;;;36.60;16.90;;;;;;;8.06;95.72;101663.41;5052592;28;20215;-65
2021/12/14 05:37:05;;;;;;;33.40;16.90;;;;;;;8.13;96.50;101664.69;5055556;28;20238;-65
2021/12/14 05:39:48;;;;;;;30.67;17.27;;;;;;;7.82;97.01;101663.25;5053668;28;20215;-65
2021/12/14 05:45:07;;;;;;;27.33;16.57;;;;;;;7.80;98.48;101659.84;5054327;28;20362;-65
2021/12/14 05:47:43;;;;;;;26.17;15.73;;;;;;;7.71;97.78;101653.38;5052023;28;20294;-66
2021/12/14 05:50:16;;;;;;;29.37;16.50;;;;;;;7.70;97.78;101649.06;5051684;28;20305;-66
2021/12/14 05:52:44;;;;;;;29.63;16.60;;;;;;;7.73;98.42;101656.78;5056156;28;20221;-66
2021/12/14 05:55:12;;;;;;;30.53;16.27;;;;;;;7.80;97.43;101658.06;5056571;28;20235;-66
2021/12/14 05:57:40;;;;;;;29.93;16.57;;;;;;;7.51;98.34;101665.25;5049649;28;20688;-66
2021/12/14 06:00:14;;;;;;;30.30;16.40;;;;;;;7.82;97.21;101664.09;5048691;28;20218;-66
2021/12/14 06:02:42;;;;;;;28.63;15.93;;;;;;;7.63;97.64;101678.59;5049502;28;20249;-67
2021/12/14 06:05:14;;;;;;;30.53;15.90;;;;;;;7.78;96.92;101673.16;5058078;28;20303;-66
2021/12/14 06:07:42;;;;;;;26.93;15.90;;;;;;;7.94;96.53;101679.13;5059064;28;20681;-66
2021/12/14 06:10:10;;;;;;;33.13;16.70;;;;;;;7.76;97.02;101674.19;5057961;28;20301;-66
2021/12/14 06:12:39;;;;;;;28.93;16.23;;;;;;;7.84;96.58;101678.03;5057751;28;20213;-66
2021/12/14 06:15:15;;;;;;;29.47;15.90;;;;;;;7.99;94.90;101684.09;5054638;28;20235;-65
2021/12/14 06:17:44;;;;;;;26.07;15.77;;;;;;;7.93;95.85;101680.06;5054063;28;20218;-66
2021/12/14 06:20:15;;;;;;;29.20;15.50;;;;;;;8.25;92.94;101690.28;5053591;28;20313;-66
2021/12/14 06:22:44;;;;;;;30.43;16.50;;;;;;;8.28;92.07;101690.06;5051373;28;20384;-66
2021/12/14 06:25:14;;;;;;;30.10;15.93;;;;;;;8.12;92.94;101694.69;5051455;28;20681;-64
2021/12/14 06:27:44;;;;;;;26.80;15.30;;;;;;;7.94;94.83;101689.69;5062605;28;20214;-66
2021/12/14 06:30:17;;;;;;;32.00;16.83;;;;;;;8.11;92.82;101699.13;5053574;28;20244;-66
2021/12/14 06:32:47;;;;;;;29.33;15.53;;;;;;;8.16;93.35;101714.69;5058563;28;20232;-66
2021/12/14 06:35:19;;;;;;;28.13;16.37;;;;;;;8.03;93.51;101700.56;5058638;28;20759;-66
2021/12/14 06:38:21;;;;;;;28.37;16.13;;;;;;;8.06;93.63;101711.81;5059008;28;20229;-66
2021/12/14 06:40:53;;;;;;;31.47;16.50;;;;;;;8.11;93.46;101700.91;5053019;28;20207;-66
2021/12/14 06:43:25;;;;;;;28.70;16.97;;;;;;;8.33;92.44;101719.72;5060213;28;20241;-64
2021/12/14 06:45:57;;;;;;;28.70;16.20;;;;;;;8.46;91.00;101733.78;5062405;28;20234;-66
2021/12/14 06:48:31;;;;;;;27.83;16.63;;;;;;;8.25;91.99;101727.28;5052852;28;20700;-66
2021/12/14 06:51:02;;;;;;;29.23;16.53;;;;;;;8.15;92.48;101728.84;5056649;28;20210;-66
2021/12/14 06:53:30;;;;;;;33.17;17.97;;;;;;;8.19;92.42;101717.09;5058976;28;20310;-65
2021/12/14 06:56:01;;;;;;;29.40;17.50;;;;;;;8.18;93.57;101729.47;5058819;28;20329;-65
2021/12/14 06:58:32;;;;;;;32.93;18.97;;;;;;;8.20;92.48;101735.50;5063398;28;20200;-65
2021/12/14 07:01:08;;;;;;;35.17;19.37;;;;;;;8.12;93.09;101739.59;5055927;28;20295;-65
2021/12/14 07:03:43;;;;;;;35.30;19.80;;;;;;;7.94;94.75;101745.16;5056374;28;20211;-64
2021/12/14 07:06:14;;;;;;;36.53;19.50;;;;;;;7.89;95.68;101755.19;5059534;28;20317;-63
2021/12/14 07:08:41;;;;;;;36.13;19.53;;;;;;;8.24;93.65;101754.66;5058863;28;20250;-64
2021/12/14 07:11:09;;;;;;;32.10;18.70;;;;;;;8.28;93.14;101742.91;5061373;28;20213;-64
2021/12/14 07:13:40;;;;;;;32.47;18.80;;;;;;;8.12;93.70;101747.53;5054844;28;20283;-63
2021/12/14 07:16:20;;;;;;;33.83;18.07;;;;;;;8.26;92.83;101764.19;5061520;28;20297;-64
2021/12/14 07:18:56;;;;;;;27.67;15.50;;;;;;;8.08;93.49;101767.19;5058058;28;20203;-64
2021/12/14 07:21:40;;;;;;;24.47;14.00;;;;;;;8.09;92.86;101784.75;5055521;28;20210;-63
2021/12/14 07:24:32;;;;;;;29.50;13.97;;;;;;;8.07;93.45;101768.97;5055743;28;20310;-64
2021/12/14 07:27:17;;;;;;;23.37;13.20;;;;;;;8.11;93.11;101770.47;5053753;28;20672;-63
2021/12/14 07:29:46;;;;;;;23.80;13.23;;;;;;;8.07;93.20;101768.13;5062812;28;20336;-64
2021/12/14 07:32:22;;;;;;;20.50;12.27;;;;;;;8.03;93.04;101758.69;5051881;28;20215;-62
2021/12/14 07:34:49;;;;;;;22.57;12.77;;;;;;;7.97;92.58;101761.75;5052242;28;20654;-62
2021/12/14 07:37:17;;;;;;;22.53;13.00;;;;;;;7.94;93.42;101760.16;5052588;28;20214;-62
2021/12/14 07:39:50;;;;;;;24.07;13.67;;;;;;;7.94;93.51;101753.06;5051883;28;20309;-62
2021/12/14 07:42:18;;;;;;;25.67;14.47;;;;;;;7.53;95.99;101765.47;5049262;28;20281;-63
2021/12/14 07:44:46;;;;;;;27.80;15.10;;;;;;;7.73;97.25;101759.75;5057732;28;20333;-60
2021/12/14 07:47:19;;;;;;;29.37;16.27;;;;;;;7.60;95.99;101763.25;5061016;28;20230;-62
2021/12/14 07:49:54;;;;;;;27.07;15.50;;;;;;;7.63;96.05;101766.56;5054106;28;20221;-63
2021/12/14 07:52:24;;;;;;;26.40;15.67;;;;;;;7.65;95.06;101775.22;5055033;28;20205;-63
2021/12/14 07:54:56;;;;;;;24.63;14.60;;;;;;;7.59;95.64;101788.81;5050152;28;20636;-63
2021/12/14 07:57:25;;;;;;;26.83;15.20;;;;;;;7.74;93.90;101779.09;5051765;28;20238;-62
2021/12/14 07:59:56;;;;;;;27.73;14.70;;;;;;;7.52;95.42;101774.31;5052855;28;20605;-63
2021/12/14 08:02:32;;;;;;;38.43;15.73;;;;;;;7.67;94.07;101785.69;5060954;28;20215;-63
2021/12/14 08:05:04;;;;;;;27.00;14.77;;;;;;;7.60;94.70;101784.38;5057719;28;20236;-63
2021/12/14 08:07:34;;;;;;;27.63;14.77;;;;;;;7.53;94.68;101789.22;5056781;28;20827;-63
2021/12/14 08:10:07;;;;;;;26.23;13.73;;;;;;;7.63;93.41;101782.41;5051201;28;20339;-63
2021/12/14 08:12:40;;;;;;;24.93;14.73;;;;;;;7.68;93.46;101785.59;5057582;28;20315;-63
2021/12/14 08:15:19;;;;;;;30.47;15.30;;;;;;;7.54;93.88;101793.56;5059488;28;20214;-63
2021/12/14 08:18:00;;;;;;;27.33;15.37;;;;;;;7.62;94.31;101786.00;5059863;28;20322;-62
2021/12/14 08:20:28;;;;;;;30.93;16.30;;;;;;;7.74;93.10;101789.66;5052195;28;20289;-63
2021/12/14 08:22:58;;;;;;;29.50;16.17;;;;;;;7.93;92.15;101777.78;5064819;28;20245;-63
2021/12/14 08:25:30;;;;;;;25.70;15.57;;;;;;;7.56;92.53;101787.22;5058128;28;20298;-61
2021/12/14 08:28:05;;;;;;;26.67;14.93;;;;;;;7.76;93.62;101790.38;5060723;28;20203;-62
2021/12/14 08:30:35;;;;;;;29.60;16.33;;;;;;;7.51;94.04;101793.72;5062798;28;20250;-62
2021/12/14 08:33:05;;;;;;;29.20;15.40;;;;;;;7.46;94.43;101796.69;5057582;28;20625;-62
2021/12/14 08:35:33;;;;;;;28.97;15.30;;;;;;;7.52;93.87;101798.06;5059184;28;20214;-63
2021/12/14 08:38:03;;;;;;;29.50;16.30;;;;;;;7.51;94.74;101801.66;5060704;28;20266;-62
2021/12/14 08:40:35;;;;;;;33.50;15.87;;;;;;;7.27;96.52;101787.34;5051206;28;20236;-63
2021/12/14 08:43:11;;;;;;;33.70;16.53;;;;;;;7.39;96.71;101797.13;5059114;28;20233;-62
2021/12/14 08:45:45;;;;;;;33.93;16.73;;;;;;;7.45;95.58;101786.22;5060459;28;20706;-62
2021/12/14 08:48:18;;;;;;;35.23;17.57;;;;;;;7.43;96.25;101793.38;5050473;28;20849;-62
2021/12/14 08:50:52;;;;;;;37.23;19.03;;;;;;;7.40;97.11;101789.13;5059943;28;20690;-62
2021/12/14 08:53:23;;;;;;;41.20;19.87;;;;;;;7.44;96.51;101789.78;5056338;28;20708;-61
2021/12/14 08:55:54;;;;;;;40.33;20.80;;;;;;;7.47;95.43;101794.88;5057235;28;20304;-64
2021/12/14 08:58:23;;;;;;;47.40;21.30;;;;;;;7.62;94.62;101804.47;5063226;28;20244;-63
2021/12/14 09:00:55;;;;;;;47.93;21.97;;;;;;;7.49;94.49;101808.81;5061227;28;20258;-62
2021/12/14 09:03:32;;;;;;;41.80;20.67;;;;;;;7.23;97.35;101817.50;5058549;28;20529;-63
2021/12/14 09:06:03;;;;;;;44.77;21.13;;;;;;;7.42;95.45;101815.41;5055506;28;20241;-62
2021/12/14 09:08:31;;;;;;;40.50;19.60;;;;;;;7.44;95.64;101821.47;5060273;28;20240;-64
2021/12/14 09:11:01;;;;;;;40.97;20.43;;;;;;;7.32;96.06;101817.78;5056298;28;20248;-64
2021/12/14 09:13:30;;;;;;;42.37;20.90;;;;;;;7.14;97.66;101819.75;5050622;28;20218;-64
2021/12/14 09:16:00;;;;;;;40.83;20.47;;;;;;;7.21;96.68;101814.97;5054451;28;20313;-64
2021/12/14 09:18:34;;;;;;;41.17;19.43;;;;;;;7.22;96.79;101802.59;5050208;28;20600;-64
2021/12/14 09:21:10;;;;;;;35.00;18.00;;;;;;;7.10;96.22;101818.25;5053680;28;20214;-63
2021/12/14 09:23:42;;;;;;;38.37;19.20;;;;;;;7.20;95.91;101817.69;5060856;28;20309;-64
2021/12/14 09:26:15;;;;;;;40.63;19.23;;;;;;;7.44;94.40;101816.19;5051367;28;20324;-65
2021/12/14 09:28:44;;;;;;;38.43;18.77;;;;;;;7.35;94.59;101817.59;5036017;28;20625;-64
2021/12/14 09:31:21;;;;;;;39.13;19.10;;;;;;;7.50;93.86;101827.19;5053024;28;20212;-64
2021/12/14 09:33:57;;;;;;;39.77;19.87;;;;;;;7.52;93.44;101819.19;5055141;28;20217;-64
2021/12/14 09:36:26;;;;;;;40.17;18.87;;;;;;;7.59;93.13;101823.13;5048869;28;20225;-65
2021/12/14 09:38:57;;;;;;;39.33;19.57;;;;;;;7.72;91.76;101818.78;5061398;28;20226;-65
2021/12/14 09:41:29;;;;;;;38.63;18.60;;;;;;;7.62;92.73;101820.31;5059968;28;20269;-64
2021/12/14 09:43:57;;;;;;;37.23;19.27;;;;;;;7.41;93.03;101821.63;5053992;28;20305;-63
2021/12/14 09:46:25;;;;;;;40.50;18.93;;;;;;;7.78;91.92;101828.09;5054104;28;20307;-64
2021/12/14 09:48:59;;;;;;;40.97;19.53;;;;;;;7.69;90.81;101832.19;5063515;28;20980;-65
2021/12/14 09:51:32;;;;;;;36.73;18.97;;;;;;;7.58;92.80;101829.34;5058978;28;20310;-64
2021/12/14 09:54:04;;;;;;;35.57;17.90;;;;;;;7.77;90.92;101835.19;5054514;28;20221;-64
2021/12/14 09:56:37;;;;;;;37.37;17.57;;;;;;;8.10;89.67;101847.16;5059818;28;20209;-64
2021/12/14 09:59:07;;;;;;;35.73;17.73;;;;;;;7.56;91.78;101833.91;5059364;28;20665;-64
2021/12/14 10:01:39;;;;;;;32.80;16.63;;;;;;;7.41;92.89;101824.28;5057153;28;20211;-64
2021/12/14 10:04:12;;;;;;;36.30;17.97;;;;;;;7.51;92.55;101833.31;5049827;28;20413;-64
2021/12/14 10:06:40;;;;;;;36.40;18.80;;;;;;;7.55;92.97;101832.22;5071470;28;20344;-64
2021/12/14 10:09:13;;;;;;;37.93;18.20;;;;;;;7.81;91.01;101833.22;5058195;28;20210;-64
2021/12/14 10:11:49;;;;;;;38.90;19.10;;;;;;;7.73;91.36;101838.97;5065782;28;20224;-64
2021/12/14 10:14:19;;;;;;;37.53;18.80;;;;;;;7.80;90.93;101835.00;5062915;28;20218;-64
2021/12/14 10:16:48;;;;;;;38.43;19.30;;;;;;;7.65;92.17;101829.84;5054965;28;20316;-64
2021/12/14 10:19:19;;;;;;;36.07;17.30;;;;;;;7.32;93.45;101815.13;5058008;28;20311;-64
2021/12/14 10:21:51;;;;;;;39.20;19.57;;;;;;;7.36;94.08;101813.16;5058246;28;20828;-64
2021/12/14 10:24:20;;;;;;;37.30;18.80;;;;;;;7.45;94.03;101825.81;5061125;28;20222;-65
2021/12/14 10:26:52;;;;;;;34.37;18.20;;;;;;;7.49;93.92;101829.94;5060156;28;20230;-64
2021/12/14 10:29:20;;;;;;;34.17;17.03;;;;;;;7.45;93.84;101824.00;5053451;28;20214;-63
2021/12/14 10:31:53;;;;;;;36.80;17.93;;;;;;;7.40;94.00;101831.34;5068269;28;20211;-64
2021/12/14 10:34:25;;;;;;;36.87;17.03;;;;;;;7.55;92.89;101826.94;5052750;28;20226;-63
2021/12/14 10:37:02;;;;;;;36.27;17.93;;;;;;;7.50;92.77;101837.75;5064941;28;20210;-63
2021/12/14 10:39:40;;;;;;;37.63;19.30;;;;;;;7.81;91.90;101836.69;5059879;28;20210;-64
2021/12/14 10:44:57;;;;;;;41.97;18.60;;;;;;;7.67;91.15;101838.50;5064517;28;20674;-64
2021/12/14 10:47:29;;;;;;;41.27;17.40;;;;;;;8.00;90.57;101832.88;5051756;28;20273;-63
2021/12/14 10:50:00;;;;;;;37.07;17.63;;;;;;;7.92;89.75;101828.06;5058482;28;20238;-64
2021/12/14 10:52:31;;;;;;;36.50;16.90;;;;;;;7.74;90.76;101818.69;5063921;28;20214;-64
2021/12/14 10:55:05;;;;;;;38.83;17.97;;;;;;;7.51;92.15;101817.50;5054553;28;20233;-63
2021/12/14 10:57:35;;;;;;;35.87;17.93;;;;;;;7.59;91.78;101820.50;5053767;28;20842;-63
2021/12/14 11:00:09;;;;;;;35.33;16.70;;;;;;;7.71;90.90;101818.88;5055588;28;20563;-63
2021/12/14 11:02:41;;;;;;;36.57;17.43;;;;;;;7.62;92.39;101822.97;5069252;28;20710;-63
2021/12/14 11:05:17;;;;;;;36.83;16.77;;;;;;;7.78;90.54;101826.31;5054043;28;20215;-63
2021/12/14 11:07:47;;;;;;;42.53;18.77;;;;;;;7.97;90.09;101825.16;5050845;28;20227;-63
2021/12/14 11:10:20;;;;;;;33.87;16.30;;;;;;;8.08;88.74;101826.16;5060464;28;20218;-62
2021/12/14 11:12:51;;;;;;;35.77;16.43;;;;;;;7.56;91.49;101826.81;5070704;28;20214;-62
2021/12/14 11:15:23;;;;;;;36.93;17.43;;;;;;;7.72;91.03;101837.28;5065718;28;20241;-63
2021/12/14 11:20:52;;;;;;;33.40;15.93;;;;;;;7.96;90.30;101826.09;5056142;28;20267;-62
2021/12/14 11:23:23;;;;;;;38.60;18.43;;;;;;;7.98;90.14;101826.84;5055329;28;20715;-62
2021/12/14 11:25:56;;;;;;;38.03;18.27;;;;;;;8.03;89.41;101822.09;5052073;28;20242;-62
2021/12/14 11:28:33;;;;;;;36.43;16.70;;;;;;;8.01;89.53;101816.06;5059920;28;20747;-63
2021/12/14 11:31:05;;;;;;;35.70;15.77;;;;;;;7.77;91.01;101808.78;5051559;28;20297;-62
2021/12/14 11:33:37;;;;;;;40.90;19.13;;;;;;;7.63;92.45;101808.81;5062346;28;20211;-64
2021/12/14 11:36:13;;;;;;;32.13;16.10;;;;;;;7.68;91.74;101817.28;5061604;28;20207;-63
2021/12/14 11:38:45;;;;;;;41.63;17.43;;;;;;;7.63;92.69;101816.72;5052790;28;20390;-64
2021/12/14 11:41:36;;;;;;;36.00;16.67;;;;;;;7.89;90.66;101815.06;5052621;28;20214;-62
2021/12/14 11:44:09;;;;;;;45.83;18.33;;;;;;;7.80;91.52;101808.59;5051289;28;20276;-62
2021/12/14 11:47:00;;;;;;;38.30;16.70;;;;;;;7.75;92.40;101810.66;5058709;28;20234;-64
2021/12/14 11:49:43;;;;;;;34.90;15.90;;;;;;;7.71;92.07;101797.75;5066295;28;20216;-63
2021/12/14 11:52:13;;;;;;;40.60;17.67;;;;;;;7.56;93.29;101799.59;5053287;28;20238;-65
2021/12/14 11:54:45;;;;;;;43.70;18.40;;;;;;;7.65;93.56;101796.34;5058830;28;20254;-63
2021/12/14 11:57:15;;;;;;;41.67;17.90;;;;;;;7.80;93.05;101787.47;5052181;28;20212;-62
2021/12/14 11:59:43;;;;;;;44.10;17.27;;;;;;;7.98;91.79;101795.16;5062036;28;20246;-63
2021/12/14 12:02:11;;;;;;;43.27;18.43;;;;;;;7.89;92.47;101792.16;5057498;28;20757;-64
2021/12/14 12:04:43;;;;;;;42.77;17.87;;;;;;;8.03;91.39;101793.88;5060408;28;20512;-64
2021/12/14 12:10:06;;;;;;;37.43;16.73;;;;;;;8.12;91.63;101782.72;5056477;28;20618;-63